createdAt,value
2023-11-12T00:02:24.030Z,99741.34
2023-11-12T00:04:52.082Z,99749.59
2023-11-12T00:07:22.048Z,99746.00
2023-11-12T00:09:50.852Z,99744.81
2023-11-12T00:12:19.883Z,99744.81
2023-11-12T00:14:47.998Z,99746.16
2023-11-12T00:17:17.463Z,99747.59
2023-11-12T00:19:45.719Z,99739.72
2023-11-12T00:22:14.281Z,99750.22
2023-11-12T00:24:43.919Z,99751.66
2023-11-12T00:27:11.933Z,99748.88
2023-11-12T00:29:41.589Z,99740.84
2023-11-12T00:32:09.789Z,99747.81
2023-11-12T00:34:39.542Z,99750.06
2023-11-12T00:37:08.751Z,99745.19
2023-11-12T00:39:36.712Z,99740.69
2023-11-12T00:42:06.719Z,99739.13
2023-11-12T00:44:38.263Z,99739.47
2023-11-12T00:47:06.906Z,99729.94
2023-11-12T00:49:37.381Z,99734.13
2023-11-12T00:52:09.442Z,99737.44
2023-11-12T00:54:38.385Z,99732.78
2023-11-12T00:57:08.062Z,99737.09
2023-11-12T00:59:37.326Z,99736.41
2023-11-12T01:02:06.195Z,99733.63
2023-11-12T01:04:34.354Z,99728.16
2023-11-12T01:07:02.275Z,99733.03
2023-11-12T01:09:30.522Z,99726.50
2023-11-12T01:11:58.821Z,99732.34
2023-11-12T01:14:28.447Z,99734.16
2023-11-12T01:16:57.447Z,99733.91
2023-11-12T01:19:25.556Z,99727.09
2023-11-12T01:21:57.255Z,99727.34
2023-11-12T01:24:27.230Z,99728.06
2023-11-12T01:26:57.645Z,99724.47
2023-11-12T01:29:25.762Z,99723.78
2023-11-12T01:31:55.070Z,99720.91
2023-11-12T01:34:25.824Z,99717.09
2023-11-12T01:36:54.223Z,99719.38
2023-11-12T01:39:22.289Z,99709.50
2023-11-12T01:41:50.522Z,99709.72
2023-11-12T01:44:18.594Z,99721.16
2023-11-12T01:46:46.967Z,99712.31
2023-11-12T01:49:16.287Z,99709.00
2023-11-12T01:51:44.372Z,99712.81
2023-11-12T01:54:17.876Z,99706.00
2023-11-12T01:56:46.033Z,99705.94
2023-11-12T01:59:15.438Z,99702.94
2023-11-12T02:01:44.651Z,99711.16
2023-11-12T02:04:13.370Z,99707.84
2023-11-12T02:06:45.333Z,99701.75
2023-11-12T02:09:13.382Z,99698.31
2023-11-12T02:11:41.818Z,99703.41
2023-11-12T02:14:09.890Z,99707.81
2023-11-12T02:16:37.957Z,99707.38
2023-11-12T02:19:06.109Z,99710.69
2023-11-12T02:21:34.234Z,99717.13
2023-11-12T02:24:03.626Z,99719.25
2023-11-12T02:26:31.904Z,99715.56
2023-11-12T02:28:59.857Z,99715.94
2023-11-12T02:31:28.920Z,99720.22
2023-11-12T02:33:57.068Z,99714.28
2023-11-12T02:36:26.629Z,99714.63
2023-11-12T02:38:57.140Z,99707.13
2023-11-12T02:41:26.522Z,99711.44
2023-11-12T02:43:56.990Z,99710.56
2023-11-12T02:46:25.398Z,99703.66
2023-11-12T02:49:11.974Z,99711.28
2023-11-12T02:51:40.103Z,99708.19
2023-11-12T02:54:08.186Z,99717.38
2023-11-12T02:56:37.575Z,99715.47
2023-11-12T02:59:06.496Z,99713.78
2023-11-12T03:01:34.604Z,99720.56
2023-11-12T03:04:05.053Z,99712.06
2023-11-12T03:06:34.516Z,99711.09
2023-11-12T03:09:05.233Z,99712.81
2023-11-12T03:11:39.144Z,99703.06
2023-11-12T03:14:07.774Z,99698.88
2023-11-12T03:16:35.817Z,99699.50
2023-11-12T03:19:03.866Z,99692.72
2023-11-12T03:21:32.344Z,99689.84
2023-11-12T03:24:00.409Z,99689.94
2023-11-12T03:26:28.497Z,99677.81
2023-11-12T03:28:57.863Z,99677.44
2023-11-12T03:31:26.136Z,99678.75
2023-11-12T03:33:54.388Z,99682.56
2023-11-12T03:36:23.523Z,99671.50
2023-11-12T03:38:51.457Z,99667.09
2023-11-12T03:41:19.596Z,99667.00
2023-11-12T03:43:47.729Z,99665.88
2023-11-12T03:46:17.191Z,99670.44
2023-11-12T03:48:45.248Z,99651.63
2023-11-12T03:51:13.378Z,99651.00
2023-11-12T03:53:41.403Z,99647.09
2023-11-12T03:56:09.542Z,99642.34
2023-11-12T03:58:38.081Z,99641.75
2023-11-12T04:01:06.397Z,99648.28
2023-11-12T04:03:36.877Z,99643.03
2023-11-12T04:06:07.834Z,99642.44
2023-11-12T04:08:35.897Z,99638.44
2023-11-12T04:11:06.645Z,99645.22
2023-11-12T04:13:34.762Z,99650.34
2023-11-12T04:16:03.457Z,99652.09
2023-11-12T04:18:31.779Z,99651.66
2023-11-12T04:21:03.432Z,99644.72
2023-11-12T04:23:33.694Z,99650.19
2023-11-12T04:26:01.939Z,99644.91
2023-11-12T04:28:30.509Z,99644.00
2023-11-12T04:30:58.904Z,99649.47
2023-11-12T04:33:27.212Z,99641.25
2023-11-12T04:35:55.231Z,99639.84
2023-11-12T04:38:27.049Z,99642.34
2023-11-12T04:40:55.198Z,99640.09
2023-11-12T04:43:23.187Z,99638.78
2023-11-12T04:45:51.160Z,99640.66
2023-11-12T04:48:19.232Z,99639.25
2023-11-12T04:50:47.662Z,99634.72
2023-11-12T04:53:15.626Z,99636.53
2023-11-12T04:55:46.030Z,99641.03
2023-11-12T04:58:14.192Z,99637.34
2023-11-12T05:00:42.231Z,99640.66
2023-11-12T05:03:11.041Z,99631.63
2023-11-12T05:05:38.978Z,99640.34
2023-11-12T05:08:07.023Z,99643.19
2023-11-12T05:10:44.775Z,99634.50
2023-11-12T05:13:17.711Z,99640.19
2023-11-12T05:15:45.873Z,99640.56
2023-11-12T05:18:13.934Z,99635.44
2023-11-12T05:20:41.842Z,99629.13
2023-11-12T05:23:09.923Z,99631.63
2023-11-12T05:25:41.706Z,99634.97
2023-11-12T05:28:09.800Z,99634.97
2023-11-12T05:30:40.148Z,99624.47
2023-11-12T05:33:08.260Z,99627.00
2023-11-12T05:35:36.189Z,99636.72
2023-11-12T05:38:04.415Z,99640.91
2023-11-12T05:40:32.372Z,99639.13
2023-11-12T05:43:01.887Z,99633.53
2023-11-12T05:45:30.350Z,99639.47
2023-11-12T05:47:59.681Z,99644.13
2023-11-12T05:50:27.647Z,99636.13
2023-11-12T05:52:57.814Z,99648.28
2023-11-12T05:55:26.544Z,99640.41
2023-11-12T05:57:54.535Z,99638.66
2023-11-12T06:00:22.613Z,99639.47
2023-11-12T06:02:50.684Z,99646.50
2023-11-12T06:05:20.861Z,99648.03
2023-11-12T06:07:51.036Z,99655.06
2023-11-12T06:10:18.967Z,99657.59
2023-11-12T06:12:47.337Z,99648.88
2023-11-12T06:15:15.346Z,99663.75
2023-11-12T06:17:43.827Z,99661.13
2023-11-12T06:20:12.498Z,99657.22
2023-11-12T06:22:42.562Z,99655.56
2023-11-12T06:25:12.996Z,99660.69
2023-11-12T06:27:41.694Z,99663.41
2023-11-12T06:30:11.986Z,99668.41
2023-11-12T06:32:40.445Z,99670.09
2023-11-12T06:35:09.556Z,99676.75
2023-11-12T06:37:37.608Z,99670.69
2023-11-12T06:40:08.989Z,99677.09
2023-11-12T06:42:37.001Z,99681.16
2023-11-12T06:45:05.360Z,99676.84
2023-11-12T06:47:33.468Z,99680.91
2023-11-12T06:50:01.351Z,99685.91
2023-11-12T06:52:31.529Z,99690.06
2023-11-12T06:55:00.505Z,99691.72
2023-11-12T06:57:30.746Z,99702.94
2023-11-12T06:59:59.203Z,99708.03
2023-11-12T07:02:27.337Z,99707.81
2023-11-12T07:04:56.420Z,99708.63
2023-11-12T07:07:24.425Z,99709.22
2023-11-12T07:09:53.315Z,99714.94
2023-11-12T07:12:23.293Z,99722.44
2023-11-12T07:14:52.620Z,99718.16
2023-11-12T07:17:22.978Z,99718.75
2023-11-12T07:19:54.319Z,99719.47
2023-11-12T07:22:22.622Z,99733.31
2023-11-12T07:24:51.184Z,99741.97
2023-11-12T07:27:20.761Z,99735.06
2023-11-12T07:29:48.930Z,99738.41
2023-11-12T07:32:18.268Z,99735.56
2023-11-12T07:34:48.996Z,99733.38
2023-11-12T07:37:17.065Z,99749.69
2023-11-12T07:39:45.224Z,99744.94
2023-11-12T07:42:13.352Z,99744.69
2023-11-12T07:44:41.290Z,99749.69
2023-11-12T07:47:10.351Z,99755.63
2023-11-12T07:49:39.635Z,99759.34
2023-11-12T07:52:07.816Z,99765.31
2023-11-12T07:54:36.268Z,99757.44
2023-11-12T07:57:04.647Z,99754.44
2023-11-12T07:59:32.666Z,99757.53
2023-11-12T08:02:00.743Z,99756.44
2023-11-12T08:04:29.257Z,99765.03
2023-11-12T08:07:00.680Z,99770.91
2023-11-12T08:09:28.711Z,99777.28
2023-11-12T08:11:57.502Z,99783.03
2023-11-12T08:14:25.804Z,99775.53
2023-11-12T08:16:53.827Z,99774.44
2023-11-12T08:19:22.230Z,99768.69
2023-11-12T08:21:50.197Z,99773.09
2023-11-12T08:24:19.590Z,99781.81
2023-11-12T08:26:48.510Z,99767.72
2023-11-12T08:29:17.839Z,99780.09
2023-11-12T08:31:48.066Z,99784.78
2023-11-12T08:34:16.068Z,99788.03
2023-11-12T08:36:44.063Z,99790.91
2023-11-12T08:39:13.922Z,99788.03
2023-11-12T08:41:46.137Z,99789.00
2023-11-12T08:44:16.454Z,99788.84
2023-11-12T08:46:47.477Z,99790.19
2023-11-12T08:49:16.084Z,99795.06
2023-11-12T08:51:44.050Z,99795.91
2023-11-12T08:54:13.756Z,99788.25
2023-11-12T08:56:42.312Z,99795.91
2023-11-12T08:59:12.511Z,99794.00
2023-11-12T09:01:40.507Z,99794.28
2023-11-12T09:04:08.771Z,99797.03
2023-11-12T09:06:37.012Z,99801.59
2023-11-12T09:09:06.694Z,99801.59
2023-11-12T09:11:35.702Z,99800.72
2023-11-12T09:14:05.993Z,99792.16
2023-11-12T09:16:35.661Z,99798.00
2023-11-12T09:19:06.709Z,99800.38
2023-11-12T09:21:34.826Z,99798.19
2023-11-12T09:24:05.567Z,99797.75
2023-11-12T09:26:33.563Z,99798.19
2023-11-12T09:29:01.635Z,99800.72
2023-11-12T09:31:29.685Z,99797.00
2023-11-12T09:33:59.540Z,99795.66
2023-11-12T09:36:27.556Z,99803.16
2023-11-12T09:38:55.623Z,99802.53
2023-11-12T09:41:24.745Z,99799.97
2023-11-12T09:43:53.501Z,99801.00
2023-11-12T09:46:23.857Z,99804.19
2023-11-12T09:48:53.663Z,99792.09
2023-11-12T09:51:27.817Z,99792.16
2023-11-12T09:53:56.657Z,99800.03
2023-11-12T09:56:25.835Z,99796.63
2023-11-12T09:58:54.648Z,99796.63
2023-11-12T10:01:22.808Z,99801.75
2023-11-12T10:03:52.341Z,99796.38
2023-11-12T10:06:22.404Z,99791.38
2023-11-12T10:08:52.754Z,99795.13
2023-11-12T10:11:22.582Z,99784.78
2023-11-12T10:13:52.395Z,99787.59
2023-11-12T10:16:25.239Z,99786.66
2023-11-12T10:18:53.885Z,99785.13
2023-11-12T10:21:22.060Z,99783.41
2023-11-12T10:24:06.834Z,99782.00
2023-11-12T10:26:35.998Z,99781.06
2023-11-12T10:29:08.793Z,99781.78
2023-11-12T10:31:40.488Z,99774.59
2023-11-12T10:34:09.409Z,99775.75
2023-11-12T10:36:37.502Z,99782.13
2023-11-12T10:39:12.273Z,99770.91
2023-11-12T10:41:40.991Z,99769.28
2023-11-12T10:44:14.778Z,99775.16
2023-11-12T10:46:51.169Z,99766.88
2023-11-12T10:49:21.204Z,99773.72
2023-11-12T10:51:51.003Z,99767.91
2023-11-12T10:54:21.881Z,99765.56
2023-11-12T10:56:50.888Z,99769.00
2023-11-12T10:59:20.055Z,99766.38
2023-11-12T11:01:49.206Z,99762.75
2023-11-12T11:04:18.587Z,99763.03
2023-11-12T11:06:46.730Z,99766.09
2023-11-12T11:09:15.403Z,99769.97
2023-11-12T11:11:44.961Z,99767.34
2023-11-12T11:14:23.046Z,99770.91
2023-11-12T11:16:51.850Z,99762.47
2023-11-12T11:19:20.376Z,99760.00
2023-11-12T11:22:21.678Z,99764.06
2023-11-12T11:24:49.959Z,99749.63
2023-11-12T11:27:20.705Z,99747.56
2023-11-12T11:30:10.030Z,99747.13
2023-11-12T11:32:38.481Z,99747.69
2023-11-12T11:35:18.509Z,99750.47
2023-11-12T11:38:13.450Z,99746.41
2023-11-12T11:40:46.149Z,99738.38
2023-11-12T11:43:33.966Z,99735.00
2023-11-12T11:46:14.201Z,99742.88
2023-11-12T11:49:22.356Z,99728.69
2023-11-12T11:51:50.838Z,99732.47
2023-11-12T11:54:18.888Z,99727.81
2023-11-12T11:56:47.177Z,99717.28
2023-11-12T11:59:16.725Z,99723.03
2023-11-12T12:01:49.139Z,99718.44
2023-11-12T12:04:18.593Z,99719.19
2023-11-12T12:06:47.802Z,99715.06
2023-11-12T12:09:19.432Z,99715.78
2023-11-12T12:11:48.538Z,99723.94
2023-11-12T12:14:18.267Z,99721.94
2023-11-12T12:16:47.175Z,99725.03
2023-11-12T12:19:19.455Z,99717.97
2023-11-12T12:21:49.090Z,99718.75
2023-11-12T12:24:18.404Z,99721.22
2023-11-12T12:26:46.684Z,99727.00
2023-11-12T12:29:21.489Z,99723.91
2023-11-12T12:31:50.339Z,99729.50
2023-11-12T12:34:20.670Z,99728.88
2023-11-12T12:37:00.955Z,99730.69
2023-11-12T12:39:56.645Z,99732.25
2023-11-12T12:42:28.818Z,99732.66
2023-11-12T12:44:59.097Z,99739.75
2023-11-12T12:47:38.498Z,99739.63
2023-11-12T12:50:17.228Z,99726.41
2023-11-12T12:52:48.687Z,99733.56
2023-11-12T12:55:18.304Z,99726.75
2023-11-12T12:57:50.171Z,99722.50
2023-11-12T13:00:23.045Z,99720.53
2023-11-12T13:02:52.697Z,99724.91
2023-11-12T13:05:26.655Z,99716.41
2023-11-12T13:07:54.842Z,99721.28
2023-11-12T13:10:26.930Z,99717.72
2023-11-12T13:12:57.432Z,99726.38
2023-11-12T13:15:27.114Z,99717.50
2023-11-12T13:17:57.511Z,99718.69
2023-11-12T13:20:27.129Z,99724.84
2023-11-12T13:22:56.276Z,99728.22
2023-11-12T13:25:24.394Z,99721.28
2023-11-12T13:27:52.503Z,99724.38
2023-11-12T13:30:20.869Z,99723.50
2023-11-12T13:32:53.034Z,99719.06
2023-11-12T13:35:21.135Z,99720.38
2023-11-12T13:37:49.080Z,99721.09
2023-11-12T13:40:17.264Z,99717.47
2023-11-12T13:42:46.245Z,99717.81
2023-11-12T13:45:15.534Z,99711.72
2023-11-12T13:47:44.134Z,99711.94
2023-11-12T13:50:15.229Z,99712.84
2023-11-12T13:52:44.926Z,99707.63
2023-11-12T13:55:19.077Z,99716.56
2023-11-12T13:57:48.571Z,99713.63
2023-11-12T14:00:18.636Z,99716.69
2023-11-12T14:02:46.820Z,99714.28
2023-11-12T14:05:17.894Z,99704.09
2023-11-12T14:07:45.949Z,99711.97
2023-11-12T14:10:15.826Z,99717.69
2023-11-12T14:12:45.779Z,99709.66
2023-11-12T14:15:19.026Z,99712.56
2023-11-12T14:17:47.689Z,99712.94
2023-11-12T14:20:23.386Z,99711.69
2023-11-12T14:22:51.922Z,99714.94
2023-11-12T14:25:21.091Z,99709.56
2023-11-12T14:27:50.354Z,99707.00
2023-11-12T14:30:19.643Z,99713.41
2023-11-12T14:32:48.238Z,99716.31
2023-11-12T14:35:17.867Z,99724.81
2023-11-12T14:37:48.542Z,99729.00
2023-11-12T14:40:19.268Z,99725.25
2023-11-12T14:42:47.933Z,99724.34
2023-11-12T14:47:47.254Z,99724.50
2023-11-12T14:50:17.684Z,99724.81
2023-11-12T14:52:45.829Z,99722.44
2023-11-12T14:55:24.467Z,99724.84
2023-11-12T14:57:56.192Z,99733.31
2023-11-12T15:00:29.381Z,99736.41
2023-11-12T15:02:58.636Z,99741.56
2023-11-12T15:05:28.529Z,99739.59
2023-11-12T15:07:58.513Z,99749.75
2023-11-12T15:10:26.630Z,99755.16
2023-11-12T15:12:56.977Z,99754.75
2023-11-12T15:15:25.038Z,99762.25
2023-11-12T15:17:53.832Z,99759.09
2023-11-12T15:20:21.989Z,99756.56
2023-11-12T15:22:52.655Z,99759.47
2023-11-12T15:25:21.268Z,99762.53
2023-11-12T15:27:50.858Z,99764.59
2023-11-12T15:30:20.596Z,99766.84
2023-11-12T15:32:49.278Z,99767.41
2023-11-12T15:35:17.709Z,99774.03
2023-11-12T15:37:46.245Z,99768.06
2023-11-12T15:40:21.032Z,99772.91
2023-11-12T15:42:55.324Z,99775.84
2023-11-12T15:45:25.830Z,99775.41
2023-11-12T15:47:54.733Z,99782.47
2023-11-12T15:50:26.842Z,99776.50
2023-11-12T15:52:55.023Z,99771.41
2023-11-12T15:55:27.297Z,99784.81
2023-11-12T15:57:55.351Z,99790.38
2023-11-12T16:00:25.844Z,99783.69
2023-11-12T16:02:57.218Z,99787.47
2023-11-12T16:05:31.050Z,99792.97
2023-11-12T16:07:59.228Z,99788.25
2023-11-12T16:10:28.536Z,99786.59
2023-11-12T16:12:58.903Z,99790.06
2023-11-12T16:15:30.671Z,99789.50
2023-11-12T16:17:59.018Z,99786.97
2023-11-12T16:20:27.373Z,99782.91
2023-11-12T16:22:55.490Z,99781.41
2023-11-12T16:25:23.729Z,99783.31
2023-11-12T16:27:57.909Z,99789.44
2023-11-12T16:30:27.917Z,99798.41
2023-11-12T16:32:55.936Z,99796.19
2023-11-12T16:35:23.983Z,99804.34
2023-11-12T16:37:56.272Z,99807.25
2023-11-12T16:40:24.342Z,99810.16
2023-11-12T16:42:52.509Z,99820.69
2023-11-12T16:45:22.081Z,99818.97
2023-11-12T16:47:50.101Z,99827.84
2023-11-12T16:50:18.763Z,99832.13
2023-11-12T16:52:49.592Z,99828.94
2023-11-12T16:55:17.921Z,99839.47
2023-11-12T16:57:46.815Z,99837.69
2023-11-12T17:00:19.483Z,99842.94
2023-11-12T17:02:49.366Z,99838.88
2023-11-12T17:05:20.578Z,99845.28
2023-11-12T17:07:49.062Z,99840.25
2023-11-12T17:10:17.209Z,99842.31
2023-11-12T17:12:45.235Z,99833.72
2023-11-12T17:15:13.524Z,99832.19
2023-11-12T17:17:42.240Z,99847.38
2023-11-12T17:20:14.014Z,99835.47
2023-11-12T17:22:44.655Z,99842.91
2023-11-12T17:25:13.281Z,99849.38
2023-11-12T17:27:42.373Z,99844.41
2023-11-12T17:30:12.853Z,99843.94
2023-11-12T17:32:41.276Z,99851.13
2023-11-12T17:35:15.512Z,99847.94
2023-11-12T17:37:43.550Z,99854.16
2023-11-12T17:40:12.740Z,99851.63
2023-11-12T17:42:41.014Z,99859.53
2023-11-12T17:45:12.957Z,99862.16
2023-11-12T17:47:42.072Z,99860.50
2023-11-12T17:50:12.412Z,99871.81
2023-11-12T17:52:40.602Z,99868.09
2023-11-12T17:55:09.572Z,99861.88
2023-11-12T17:57:38.175Z,99862.03
2023-11-12T18:00:10.343Z,99868.97
2023-11-12T18:02:42.730Z,99861.06
2023-11-12T18:05:14.478Z,99868.00
2023-11-12T18:07:43.726Z,99876.16
2023-11-12T18:10:13.099Z,99877.06
2023-11-12T18:12:42.934Z,99870.03
2023-11-12T18:15:14.349Z,99874.59
2023-11-12T18:17:42.682Z,99870.16
2023-11-12T18:20:11.683Z,99863.25
2023-11-12T18:22:41.043Z,99878.44
2023-11-12T18:25:09.328Z,99872.00
2023-11-12T18:27:42.335Z,99878.94
2023-11-12T18:30:11.251Z,99874.91
2023-11-12T18:32:41.696Z,99865.47
2023-11-12T18:35:11.124Z,99862.84
2023-11-12T18:37:41.982Z,99868.91
2023-11-12T18:40:17.207Z,99883.88
2023-11-12T18:42:45.532Z,99883.88
2023-11-12T18:45:17.205Z,99893.53
2023-11-12T18:47:45.753Z,99887.59
2023-11-12T18:50:13.754Z,99896.31
2023-11-12T18:52:42.429Z,99899.06
2023-11-12T18:55:14.992Z,99892.84
2023-11-12T18:57:43.314Z,99891.06
2023-11-12T19:00:12.375Z,99891.16
2023-11-12T19:02:40.928Z,99907.53
2023-11-12T19:05:11.455Z,99917.56
2023-11-12T19:07:39.800Z,99922.94
2023-11-12T19:10:11.225Z,99926.53
2023-11-12T19:12:41.753Z,99929.03
2023-11-12T19:15:11.290Z,99929.88
2023-11-12T19:17:44.063Z,99941.09
2023-11-12T19:20:13.955Z,99939.75
2023-11-12T19:22:42.260Z,99928.44
2023-11-12T19:25:13.649Z,99917.19
2023-11-12T19:27:43.196Z,99897.41
2023-11-12T19:30:16.220Z,99908.03
2023-11-12T19:32:46.134Z,99919.59
2023-11-12T19:35:14.513Z,99919.59
2023-11-12T19:37:42.520Z,99911.03
2023-11-12T19:40:11.188Z,99910.91
2023-11-12T19:42:40.209Z,99914.34
2023-11-12T19:45:13.267Z,99925.94
2023-11-12T19:47:41.384Z,99910.56
2023-11-12T19:50:12.401Z,99921.06
2023-11-12T19:52:40.610Z,99935.16
2023-11-12T19:55:09.361Z,99944.25
2023-11-12T19:57:40.506Z,99928.34
2023-11-12T20:00:14.298Z,99924.06
2023-11-12T20:02:42.467Z,99951.19
2023-11-12T20:05:10.930Z,99945.19
2023-11-12T20:07:40.451Z,99953.19
2023-11-12T20:10:11.882Z,99957.25
2023-11-12T20:12:40.181Z,99955.09
2023-11-12T20:15:10.203Z,99950.91
2023-11-12T20:17:39.758Z,99952.97
2023-11-12T20:20:08.773Z,99948.94
2023-11-12T20:22:36.772Z,99948.09
2023-11-12T20:25:08.456Z,99943.78
2023-11-12T20:27:37.214Z,99930.53
2023-11-12T20:30:10.884Z,99921.69
2023-11-12T20:32:40.579Z,99932.31
2023-11-12T20:35:10.725Z,99932.44
2023-11-12T20:37:39.030Z,99940.94
2023-11-12T20:40:10.392Z,99939.81
2023-11-12T20:42:38.819Z,99940.69
2023-11-12T20:45:08.113Z,99949.75
2023-11-12T20:47:42.018Z,99952.38
2023-11-12T20:50:11.941Z,99963.34
2023-11-12T20:52:43.524Z,99963.72
2023-11-12T20:55:15.902Z,99960.25
2023-11-12T20:57:47.326Z,99967.66
2023-11-12T21:00:18.597Z,99978.16
2023-11-12T21:02:49.082Z,99991.06
2023-11-12T21:05:21.459Z,99997.03
2023-11-12T21:07:49.625Z,99995.38
2023-11-12T21:10:17.936Z,99982.81
2023-11-12T21:12:47.608Z,99982.72
2023-11-12T21:15:16.157Z,99978.91
2023-11-12T21:17:48.212Z,99979.84
2023-11-12T21:20:18.712Z,99982.72
2023-11-12T21:22:46.799Z,99996.22
2023-11-12T21:25:17.852Z,99994.50
2023-11-12T21:27:46.183Z,99989.63
2023-11-12T21:30:16.937Z,99994.63
2023-11-12T21:32:45.571Z,99993.81
2023-11-12T21:35:15.016Z,99997.88
2023-11-12T21:37:43.071Z,99984.38
2023-11-12T21:40:11.925Z,99980.31
2023-11-12T21:42:40.693Z,99990.09
2023-11-12T21:45:10.574Z,99993.06
2023-11-12T21:47:41.252Z,100004.81
2023-11-12T21:50:11.376Z,100013.41
2023-11-12T21:52:41.517Z,100000.28
2023-11-12T21:55:09.959Z,99993.91
2023-11-12T21:57:38.758Z,99985.22
2023-11-12T22:00:12.515Z,99978.69
2023-11-12T22:02:41.357Z,99985.81
2023-11-12T22:05:10.777Z,99989.41
2023-11-12T22:07:40.382Z,99988.94
2023-11-12T22:10:13.164Z,99995.25
2023-11-12T22:12:41.650Z,99992.16
2023-11-12T22:15:14.413Z,99995.25
2023-11-12T22:17:42.751Z,99999.91
2023-11-12T22:20:15.636Z,99998.25
2023-11-12T22:22:46.285Z,99993.94
2023-11-12T22:25:15.207Z,99999.22
2023-11-12T22:27:47.513Z,99986.56
2023-11-12T22:30:17.052Z,99989.41
2023-11-12T22:32:45.956Z,99976.97
2023-11-12T22:35:13.868Z,99983.78
2023-11-12T22:37:42.269Z,99986.88
2023-11-12T22:40:13.807Z,100004.19
2023-11-12T22:42:42.028Z,99999.19
2023-11-12T22:45:12.461Z,99996.31
2023-11-12T22:47:42.421Z,99994.66
2023-11-12T22:50:13.234Z,100004.81
2023-11-12T22:52:42.501Z,100002.06
2023-11-12T22:55:12.767Z,100006.84
2023-11-12T22:57:43.441Z,100013.28
2023-11-12T23:02:58.703Z,100017.34
2023-11-12T23:05:26.788Z,100040.38
2023-11-12T23:07:54.879Z,100042.28
2023-11-12T23:10:27.689Z,100045.03
2023-11-12T23:12:56.034Z,100043.13
2023-11-12T23:15:23.985Z,100043.84
2023-11-12T23:17:52.232Z,100057.22
2023-11-12T23:20:21.138Z,100060.44
2023-11-12T23:22:49.418Z,100056.03
2023-11-12T23:25:19.294Z,100043.81
2023-11-12T23:27:49.106Z,100052.22
2023-11-12T23:30:17.347Z,100048.16
2023-11-12T23:32:45.700Z,100035.38
2023-11-12T23:35:13.834Z,100042.66
2023-11-12T23:37:42.187Z,100049.09
2023-11-12T23:40:11.762Z,100050.91
2023-11-12T23:42:39.919Z,100039.31
2023-11-12T23:45:13.149Z,100055.78
2023-11-12T23:47:41.863Z,100027.88
2023-11-12T23:50:11.655Z,100025.94
2023-11-12T23:52:39.812Z,100037.75
2023-11-12T23:55:08.442Z,100044.44
2023-11-12T23:57:36.775Z,100027.97
